MSR643 HECA-OEJN
Flight info
| Callsign | MSR643 |
|---|---|
| Flight time | 1h 52m |
| Altitude | 39000 |
| Route | CVO A727 NABED T55 DEDLI M999 MUVOL |
| Aircraft | A20N/M-SDE2E3FGHIRWXY/LB1 |
Departure
| Time | 2026-05-06 13:20 |
|---|---|
| Airport | Cairo International Airport (HECA) |
Arrival
| Time | 2026-05-06 15:13 |
|---|---|
| Airport | King Abdulaziz International Airport (OEJN) |
| Time | Latitude | Longitude | Altitude | Speed | Heading |
|---|---|---|---|---|---|
| 2026-05-06 12:56 | 30.10769 | 31.39192 | 374 ft | 0 kts | 75° |
| 2026-05-06 13:08 | 30.10766 | 31.39177 | 374 ft | 4 kts | 74° |
| 2026-05-06 13:09 | 30.10759 | 31.39148 | 374 ft | 4 kts | 76° |
| 2026-05-06 13:09 | 30.10753 | 31.39118 | 374 ft | 4 kts | 79° |
| 2026-05-06 13:09 | 30.10750 | 31.39094 | 374 ft | 2 kts | 104° |
| 2026-05-06 13:09 | 30.10755 | 31.39082 | 374 ft | 2 kts | 146° |
| 2026-05-06 13:10 | 30.10765 | 31.39077 | 374 ft | 2 kts | 165° |
| 2026-05-06 13:10 | 30.10770 | 31.39075 | 374 ft | 0 kts | 166° |
| 2026-05-06 13:13 | 30.10765 | 31.39077 | 374 ft | 2 kts | 166° |
| 2026-05-06 13:13 | 30.10736 | 31.39086 | 374 ft | 6 kts | 164° |
| 2026-05-06 13:13 | 30.10679 | 31.39103 | 374 ft | 10 kts | 165° |
| 2026-05-06 13:14 | 30.10598 | 31.39128 | 374 ft | 14 kts | 165° |
| 2026-05-06 13:14 | 30.10537 | 31.39167 | 374 ft | 11 kts | 122° |
| 2026-05-06 13:14 | 30.10541 | 31.39262 | 374 ft | 13 kts | 75° |
| 2026-05-06 13:14 | 30.10567 | 31.39375 | 374 ft | 16 kts | 75° |
| 2026-05-06 13:15 | 30.10597 | 31.39506 | 374 ft | 18 kts | 76° |
| 2026-05-06 13:15 | 30.10628 | 31.39642 | 374 ft | 15 kts | 75° |
| 2026-05-06 13:15 | 30.10620 | 31.39719 | 374 ft | 11 kts | 134° |
| 2026-05-06 13:15 | 30.10540 | 31.39750 | 374 ft | 14 kts | 166° |
| 2026-05-06 13:16 | 30.10435 | 31.39782 | 374 ft | 17 kts | 165° |
| 2026-05-06 13:16 | 30.10342 | 31.39771 | 374 ft | 15 kts | 224° |
| 2026-05-06 13:16 | 30.10269 | 31.39673 | 374 ft | 18 kts | 229° |
| 2026-05-06 13:16 | 30.10190 | 31.39583 | 374 ft | 13 kts | 211° |
| 2026-05-06 13:17 | 30.10106 | 31.39615 | 374 ft | 15 kts | 141° |
| 2026-05-06 13:17 | 30.10035 | 31.39686 | 374 ft | 9 kts | 136° |
| 2026-05-06 13:17 | 30.10031 | 31.39691 | 374 ft | 0 kts | 135° |
| 2026-05-06 13:18 | 30.10026 | 31.39698 | 374 ft | 3 kts | 130° |
| 2026-05-06 13:18 | 30.10009 | 31.39732 | 374 ft | 7 kts | 111° |
| 2026-05-06 13:19 | 30.10005 | 31.39798 | 374 ft | 10 kts | 82° |
| 2026-05-06 13:19 | 30.10026 | 31.39896 | 370 ft | 15 kts | 65° |
| 2026-05-06 13:19 | 30.10157 | 31.40078 | 372 ft | 59 kts | 49° |
| 2026-05-06 13:19 | 30.10568 | 31.40624 | 375 ft | 118 kts | 49° |
| 2026-05-06 13:20 | 30.11212 | 31.41477 | 385 ft | 162 kts | 48° |
| 2026-05-06 13:20 | 30.11967 | 31.42498 | 782 ft | 170 kts | 49° |
| 2026-05-06 13:20 | 30.12752 | 31.43601 | 1141 ft | 188 kts | 50° |
| 2026-05-06 13:20 | 30.13605 | 31.44820 | 1649 ft | 199 kts | 47° |
| 2026-05-06 13:21 | 30.14642 | 31.45809 | 2500 ft | 196 kts | 20° |
| 2026-05-06 13:21 | 30.16027 | 31.45978 | 2907 ft | 213 kts | 347° |
| 2026-05-06 13:21 | 30.17379 | 31.45138 | 3218 ft | 235 kts | 315° |
| 2026-05-06 13:21 | 30.18232 | 31.43441 | 3467 ft | 261 kts | 287° |
| 2026-05-06 13:22 | 30.18318 | 31.41275 | 3504 ft | 294 kts | 261° |
| 2026-05-06 13:22 | 30.17467 | 31.38950 | 3501 ft | 326 kts | 235° |
| 2026-05-06 13:22 | 30.15766 | 31.37093 | 3500 ft | 351 kts | 213° |
| 2026-05-06 13:22 | 30.13446 | 31.36040 | 3508 ft | 370 kts | 191° |
| 2026-05-06 13:23 | 30.10860 | 31.35971 | 3499 ft | 386 kts | 171° |
| 2026-05-06 13:23 | 30.08279 | 31.36857 | 4002 ft | 374 kts | 158° |
| 2026-05-06 13:23 | 30.06033 | 31.37874 | 5720 ft | 318 kts | 158° |
| 2026-05-06 13:23 | 30.04171 | 31.38853 | 6531 ft | 280 kts | 148° |
| 2026-05-06 13:24 | 30.02516 | 31.40075 | 6739 ft | 288 kts | 147° |
| 2026-05-06 13:24 | 30.00762 | 31.41217 | 7465 ft | 291 kts | 153° |
| 2026-05-06 13:24 | 29.98897 | 31.42158 | 8351 ft | 294 kts | 160° |
| 2026-05-06 13:24 | 29.96958 | 31.42941 | 9309 ft | 297 kts | 163° |
| 2026-05-06 13:25 | 29.94969 | 31.43641 | 10242 ft | 301 kts | 165° |
| 2026-05-06 13:25 | 29.92918 | 31.44320 | 10715 ft | 322 kts | 166° |
| 2026-05-06 13:25 | 29.90678 | 31.45049 | 11042 ft | 346 kts | 166° |
| 2026-05-06 13:25 | 29.88321 | 31.45818 | 11655 ft | 355 kts | 166° |
| 2026-05-06 13:26 | 29.85931 | 31.46605 | 12523 ft | 359 kts | 166° |
| 2026-05-06 13:26 | 29.83518 | 31.47403 | 13358 ft | 363 kts | 166° |
| 2026-05-06 13:26 | 29.81075 | 31.48210 | 14146 ft | 368 kts | 166° |
| 2026-05-06 13:26 | 29.78606 | 31.49026 | 14904 ft | 371 kts | 166° |
| 2026-05-06 13:27 | 29.76109 | 31.49850 | 15660 ft | 375 kts | 167° |
| 2026-05-06 13:27 | 29.73625 | 31.50669 | 16381 ft | 379 kts | 167° |
| 2026-05-06 13:27 | 29.71083 | 31.51506 | 17123 ft | 382 kts | 167° |
| 2026-05-06 13:27 | 29.68513 | 31.52352 | 17847 ft | 386 kts | 167° |
| 2026-05-06 13:28 | 29.65911 | 31.53203 | 18541 ft | 390 kts | 167° |
| 2026-05-06 13:28 | 29.63288 | 31.54061 | 19181 ft | 393 kts | 167° |
| 2026-05-06 13:28 | 29.60645 | 31.54924 | 19820 ft | 397 kts | 167° |
| 2026-05-06 13:28 | 29.57975 | 31.55796 | 20472 ft | 401 kts | 167° |
| 2026-05-06 13:29 | 29.55283 | 31.56676 | 21114 ft | 404 kts | 167° |
| 2026-05-06 13:29 | 29.52564 | 31.57563 | 21742 ft | 408 kts | 167° |
| 2026-05-06 13:29 | 29.49858 | 31.58447 | 22364 ft | 412 kts | 167° |
| 2026-05-06 13:29 | 29.47094 | 31.59349 | 22972 ft | 416 kts | 167° |
| 2026-05-06 13:30 | 29.44296 | 31.60261 | 23593 ft | 419 kts | 168° |
| 2026-05-06 13:30 | 29.41478 | 31.61179 | 24094 ft | 423 kts | 168° |
| 2026-05-06 13:30 | 29.38635 | 31.62106 | 24619 ft | 426 kts | 168° |
| 2026-05-06 13:30 | 29.35773 | 31.63038 | 25112 ft | 429 kts | 168° |
| 2026-05-06 13:31 | 29.32891 | 31.63976 | 25599 ft | 433 kts | 168° |
| 2026-05-06 13:31 | 29.29980 | 31.64923 | 26083 ft | 436 kts | 168° |
| 2026-05-06 13:31 | 29.27050 | 31.65876 | 26547 ft | 439 kts | 168° |
| 2026-05-06 13:31 | 29.24136 | 31.66822 | 26979 ft | 442 kts | 168° |
| 2026-05-06 13:32 | 29.21165 | 31.67787 | 27444 ft | 446 kts | 168° |
| 2026-05-06 13:32 | 29.18170 | 31.68759 | 27854 ft | 449 kts | 168° |
| 2026-05-06 13:32 | 29.15158 | 31.69736 | 28278 ft | 452 kts | 168° |
| 2026-05-06 13:32 | 29.12122 | 31.70720 | 28686 ft | 455 kts | 169° |
| 2026-05-06 13:33 | 29.09075 | 31.71707 | 29080 ft | 458 kts | 169° |
| 2026-05-06 13:33 | 29.05998 | 31.72704 | 29455 ft | 460 kts | 169° |
| 2026-05-06 13:33 | 29.02910 | 31.73702 | 29840 ft | 463 kts | 169° |
| 2026-05-06 13:33 | 28.99800 | 31.74708 | 30206 ft | 466 kts | 169° |
| 2026-05-06 13:34 | 28.96706 | 31.75706 | 30498 ft | 469 kts | 169° |
| 2026-05-06 13:34 | 28.93562 | 31.76709 | 30813 ft | 472 kts | 169° |
| 2026-05-06 13:34 | 28.90387 | 31.77717 | 31124 ft | 474 kts | 169° |
| 2026-05-06 13:34 | 28.87209 | 31.78726 | 31495 ft | 475 kts | 169° |
| 2026-05-06 13:35 | 28.84018 | 31.79739 | 31889 ft | 476 kts | 169° |
| 2026-05-06 13:35 | 28.80827 | 31.80752 | 32286 ft | 476 kts | 170° |
| 2026-05-06 13:35 | 28.77644 | 31.81763 | 32682 ft | 476 kts | 170° |
| 2026-05-06 13:35 | 28.74495 | 31.82763 | 33065 ft | 476 kts | 170° |
| 2026-05-06 13:36 | 28.71310 | 31.83772 | 33449 ft | 476 kts | 170° |
| 2026-05-06 13:36 | 28.68120 | 31.84783 | 33807 ft | 476 kts | 170° |
| 2026-05-06 13:36 | 28.64930 | 31.85792 | 34164 ft | 476 kts | 170° |
| 2026-05-06 13:36 | 28.61745 | 31.86801 | 34522 ft | 474 kts | 170° |
| 2026-05-06 13:37 | 28.58574 | 31.87804 | 34886 ft | 472 kts | 171° |
| 2026-05-06 13:37 | 28.55411 | 31.88804 | 35223 ft | 471 kts | 171° |
| 2026-05-06 13:37 | 28.52257 | 31.89800 | 35557 ft | 470 kts | 171° |
| 2026-05-06 13:37 | 28.49105 | 31.90795 | 35885 ft | 469 kts | 171° |
| 2026-05-06 13:38 | 28.46007 | 31.91772 | 36192 ft | 468 kts | 171° |
| 2026-05-06 13:38 | 28.42875 | 31.92759 | 36507 ft | 467 kts | 171° |
| 2026-05-06 13:38 | 28.39754 | 31.93742 | 36811 ft | 465 kts | 171° |
| 2026-05-06 13:38 | 28.36635 | 31.94724 | 37110 ft | 464 kts | 171° |
| 2026-05-06 13:39 | 28.33532 | 31.95701 | 37417 ft | 463 kts | 171° |
| 2026-05-06 13:39 | 28.30429 | 31.96676 | 37670 ft | 462 kts | 171° |
| 2026-05-06 13:39 | 28.27327 | 31.97651 | 37920 ft | 462 kts | 171° |
| 2026-05-06 13:39 | 28.24240 | 31.98620 | 38173 ft | 461 kts | 171° |
| 2026-05-06 13:40 | 28.21145 | 31.99591 | 38420 ft | 460 kts | 171° |
| 2026-05-06 13:40 | 28.18061 | 32.00559 | 38658 ft | 459 kts | 172° |
| 2026-05-06 13:40 | 28.14981 | 32.01525 | 38857 ft | 459 kts | 172° |
| 2026-05-06 13:40 | 28.11908 | 32.02487 | 39017 ft | 459 kts | 172° |
| 2026-05-06 13:41 | 28.08868 | 32.03439 | 39048 ft | 458 kts | 172° |
| 2026-05-06 13:41 | 28.02735 | 32.05357 | 39042 ft | 457 kts | 172° |
| 2026-05-06 13:42 | 27.96605 | 32.07312 | 39044 ft | 458 kts | 171° |
| 2026-05-06 13:42 | 27.90480 | 32.09280 | 39046 ft | 458 kts | 171° |
| 2026-05-06 13:43 | 27.84396 | 32.11227 | 39036 ft | 457 kts | 171° |
| 2026-05-06 13:43 | 27.78275 | 32.13180 | 39043 ft | 457 kts | 171° |
| 2026-05-06 13:44 | 27.72148 | 32.15133 | 39036 ft | 457 kts | 171° |
| 2026-05-06 13:44 | 27.66024 | 32.17083 | 39042 ft | 457 kts | 171° |
| 2026-05-06 13:45 | 27.59939 | 32.19018 | 39036 ft | 458 kts | 171° |
| 2026-05-06 13:45 | 27.50743 | 32.21938 | 39037 ft | 458 kts | 171° |
| 2026-05-06 13:46 | 27.44618 | 32.23881 | 39035 ft | 458 kts | 171° |
| 2026-05-06 13:46 | 27.38486 | 32.25823 | 39036 ft | 457 kts | 171° |
| 2026-05-06 13:47 | 27.32489 | 32.28167 | 39029 ft | 467 kts | 160° |
| 2026-05-06 13:47 | 27.27080 | 32.32375 | 39026 ft | 481 kts | 142° |
| 2026-05-06 13:48 | 27.22547 | 32.37989 | 39019 ft | 486 kts | 136° |
| 2026-05-06 13:48 | 27.18073 | 32.43680 | 39018 ft | 486 kts | 137° |
| 2026-05-06 13:49 | 27.13626 | 32.49321 | 39017 ft | 486 kts | 137° |
| 2026-05-06 13:49 | 27.09148 | 32.54998 | 39013 ft | 486 kts | 137° |
| 2026-05-06 13:50 | 27.04663 | 32.60676 | 39011 ft | 486 kts | 137° |
| 2026-05-06 13:50 | 27.00168 | 32.66360 | 39005 ft | 487 kts | 137° |
| 2026-05-06 13:51 | 26.95700 | 32.71999 | 39005 ft | 487 kts | 137° |
| 2026-05-06 13:51 | 26.91201 | 32.77668 | 38997 ft | 487 kts | 137° |
| 2026-05-06 13:52 | 26.86698 | 32.83335 | 38990 ft | 486 kts | 137° |
| 2026-05-06 13:52 | 26.82198 | 32.88991 | 38987 ft | 486 kts | 137° |
| 2026-05-06 13:53 | 26.77701 | 32.94636 | 38982 ft | 486 kts | 137° |
| 2026-05-06 13:53 | 26.73235 | 33.00236 | 38973 ft | 485 kts | 137° |
| 2026-05-06 13:54 | 26.68734 | 33.05872 | 38971 ft | 485 kts | 137° |
| 2026-05-06 13:54 | 26.64240 | 33.11492 | 38969 ft | 485 kts | 137° |
| 2026-05-06 13:55 | 26.59775 | 33.17068 | 38962 ft | 485 kts | 137° |
| 2026-05-06 13:55 | 26.55276 | 33.22680 | 38961 ft | 485 kts | 138° |
| 2026-05-06 13:56 | 26.50773 | 33.28288 | 38955 ft | 484 kts | 138° |
| 2026-05-06 13:56 | 26.46274 | 33.33886 | 38956 ft | 484 kts | 138° |
| 2026-05-06 13:57 | 26.41808 | 33.39436 | 38960 ft | 484 kts | 138° |
| 2026-05-06 13:57 | 26.37306 | 33.45022 | 38959 ft | 484 kts | 138° |
| 2026-05-06 13:58 | 26.32808 | 33.50597 | 38952 ft | 483 kts | 138° |
| 2026-05-06 13:58 | 26.28316 | 33.56159 | 38950 ft | 483 kts | 138° |
| 2026-05-06 13:59 | 26.23822 | 33.61716 | 38949 ft | 482 kts | 138° |
| 2026-05-06 13:59 | 26.19401 | 33.67174 | 38945 ft | 482 kts | 139° |
| 2026-05-06 14:00 | 26.14908 | 33.72716 | 38942 ft | 482 kts | 139° |
| 2026-05-06 14:00 | 26.10417 | 33.78248 | 38946 ft | 481 kts | 139° |
| 2026-05-06 14:01 | 26.05923 | 33.83776 | 38944 ft | 482 kts | 139° |
| 2026-05-06 14:01 | 26.01455 | 33.89267 | 38942 ft | 481 kts | 139° |
| 2026-05-06 14:02 | 25.96960 | 33.94783 | 38941 ft | 481 kts | 139° |
| 2026-05-06 14:02 | 25.92462 | 34.00295 | 38943 ft | 482 kts | 139° |
| 2026-05-06 14:03 | 25.87963 | 34.05802 | 38937 ft | 481 kts | 139° |
| 2026-05-06 14:03 | 25.83505 | 34.11255 | 38937 ft | 480 kts | 139° |
| 2026-05-06 14:04 | 25.79011 | 34.16742 | 38928 ft | 480 kts | 140° |
| 2026-05-06 14:04 | 25.74608 | 34.22113 | 38942 ft | 480 kts | 140° |
| 2026-05-06 14:05 | 25.70109 | 34.27593 | 38939 ft | 481 kts | 140° |
| 2026-05-06 14:05 | 25.65635 | 34.33037 | 38933 ft | 480 kts | 140° |
| 2026-05-06 14:06 | 25.61137 | 34.38504 | 38931 ft | 480 kts | 140° |
| 2026-05-06 14:06 | 25.56638 | 34.43965 | 38936 ft | 480 kts | 140° |
| 2026-05-06 14:07 | 25.52140 | 34.49420 | 38933 ft | 479 kts | 140° |
| 2026-05-06 14:07 | 25.47647 | 34.54860 | 38930 ft | 478 kts | 140° |
| 2026-05-06 14:08 | 25.43186 | 34.60256 | 38927 ft | 478 kts | 140° |
| 2026-05-06 14:08 | 25.38698 | 34.65676 | 38922 ft | 478 kts | 140° |
| 2026-05-06 14:09 | 25.34209 | 34.71092 | 38918 ft | 477 kts | 140° |
| 2026-05-06 14:09 | 25.29754 | 34.76460 | 38916 ft | 477 kts | 140° |
| 2026-05-06 14:10 | 25.25269 | 34.81858 | 38917 ft | 477 kts | 140° |
| 2026-05-06 14:10 | 25.20781 | 34.87254 | 38920 ft | 477 kts | 140° |
| 2026-05-06 14:11 | 25.16297 | 34.92640 | 38923 ft | 477 kts | 140° |
| 2026-05-06 14:11 | 25.11837 | 34.97990 | 38925 ft | 476 kts | 140° |
| 2026-05-06 14:12 | 25.07491 | 35.03198 | 38922 ft | 476 kts | 140° |
| 2026-05-06 14:12 | 25.02999 | 35.08574 | 38923 ft | 476 kts | 140° |
| 2026-05-06 14:13 | 24.98509 | 35.13941 | 38927 ft | 476 kts | 140° |
| 2026-05-06 14:13 | 24.94188 | 35.19101 | 38921 ft | 476 kts | 140° |
| 2026-05-06 14:14 | 24.89734 | 35.24413 | 38927 ft | 475 kts | 140° |
| 2026-05-06 14:14 | 24.85248 | 35.29758 | 38919 ft | 475 kts | 140° |
| 2026-05-06 14:15 | 24.80760 | 35.35099 | 38913 ft | 474 kts | 140° |
| 2026-05-06 14:15 | 24.76282 | 35.40422 | 38910 ft | 474 kts | 140° |
| 2026-05-06 14:16 | 24.71803 | 35.45740 | 38907 ft | 473 kts | 140° |
| 2026-05-06 14:16 | 24.67359 | 35.51011 | 38910 ft | 473 kts | 141° |
| 2026-05-06 14:17 | 24.62893 | 35.56302 | 38906 ft | 472 kts | 141° |
| 2026-05-06 14:17 | 24.58425 | 35.61588 | 38904 ft | 471 kts | 141° |
| 2026-05-06 14:18 | 24.53966 | 35.66859 | 38903 ft | 471 kts | 141° |
| 2026-05-06 14:18 | 24.49540 | 35.72085 | 38903 ft | 470 kts | 141° |
| 2026-05-06 14:19 | 24.45084 | 35.77340 | 38902 ft | 470 kts | 141° |
| 2026-05-06 14:19 | 24.40637 | 35.82578 | 38902 ft | 469 kts | 141° |
| 2026-05-06 14:20 | 24.36190 | 35.87811 | 38893 ft | 469 kts | 141° |
| 2026-05-06 14:20 | 24.31775 | 35.93001 | 38894 ft | 468 kts | 142° |
| 2026-05-06 14:21 | 24.27335 | 35.98214 | 38894 ft | 468 kts | 142° |
| 2026-05-06 14:21 | 24.22896 | 36.03421 | 38890 ft | 467 kts | 142° |
| 2026-05-06 14:22 | 24.19208 | 36.07742 | 38888 ft | 467 kts | 142° |
| 2026-05-06 14:22 | 24.14773 | 36.12934 | 38887 ft | 467 kts | 142° |
| 2026-05-06 14:23 | 24.09616 | 36.18963 | 38886 ft | 467 kts | 142° |
| 2026-05-06 14:23 | 24.05180 | 36.24143 | 38884 ft | 466 kts | 142° |
| 2026-05-06 14:24 | 24.01490 | 36.28448 | 38881 ft | 467 kts | 142° |
| 2026-05-06 14:24 | 23.97051 | 36.33620 | 38879 ft | 467 kts | 142° |
| 2026-05-06 14:25 | 23.91887 | 36.39631 | 38881 ft | 467 kts | 142° |
| 2026-05-06 14:25 | 23.87436 | 36.44807 | 38883 ft | 467 kts | 142° |
| 2026-05-06 14:26 | 23.83739 | 36.49101 | 38884 ft | 467 kts | 142° |
| 2026-05-06 14:26 | 23.79284 | 36.54271 | 38880 ft | 467 kts | 142° |
| 2026-05-06 14:27 | 23.74098 | 36.60282 | 38882 ft | 468 kts | 143° |
| 2026-05-06 14:27 | 23.70389 | 36.64576 | 38889 ft | 468 kts | 143° |
| 2026-05-06 14:28 | 23.65920 | 36.69745 | 38883 ft | 468 kts | 143° |
| 2026-05-06 14:28 | 23.61449 | 36.74911 | 38885 ft | 468 kts | 143° |
| 2026-05-06 14:29 | 23.56975 | 36.80076 | 38885 ft | 469 kts | 143° |
| 2026-05-06 14:29 | 23.52496 | 36.85240 | 38882 ft | 469 kts | 143° |
| 2026-05-06 14:30 | 23.48045 | 36.90366 | 38888 ft | 469 kts | 143° |
| 2026-05-06 14:30 | 23.43561 | 36.95525 | 38885 ft | 469 kts | 143° |
| 2026-05-06 14:31 | 23.39074 | 37.00684 | 38886 ft | 469 kts | 143° |
| 2026-05-06 14:31 | 23.34586 | 37.05837 | 38890 ft | 469 kts | 143° |
| 2026-05-06 14:32 | 23.30127 | 37.10950 | 38877 ft | 469 kts | 143° |
| 2026-05-06 14:32 | 23.25640 | 37.16092 | 38885 ft | 469 kts | 143° |
| 2026-05-06 14:33 | 23.21150 | 37.21231 | 38882 ft | 469 kts | 143° |
| 2026-05-06 14:33 | 23.16661 | 37.26363 | 38880 ft | 468 kts | 143° |
| 2026-05-06 14:34 | 23.12169 | 37.31494 | 38877 ft | 468 kts | 143° |
| 2026-05-06 14:34 | 23.07709 | 37.36582 | 38866 ft | 468 kts | 143° |
| 2026-05-06 14:35 | 23.03215 | 37.41704 | 38879 ft | 468 kts | 143° |
| 2026-05-06 14:35 | 22.98722 | 37.46820 | 38874 ft | 468 kts | 143° |
| 2026-05-06 14:36 | 22.94227 | 37.51933 | 38872 ft | 468 kts | 143° |
| 2026-05-06 14:36 | 22.89763 | 37.57005 | 38871 ft | 468 kts | 143° |
| 2026-05-06 14:37 | 22.85273 | 37.62102 | 38871 ft | 468 kts | 143° |
| 2026-05-06 14:37 | 22.80780 | 37.67196 | 38866 ft | 467 kts | 143° |
| 2026-05-06 14:38 | 22.76283 | 37.72290 | 38864 ft | 467 kts | 143° |
| 2026-05-06 14:38 | 22.71819 | 37.77341 | 38867 ft | 467 kts | 143° |
| 2026-05-06 14:39 | 22.67325 | 37.82422 | 38865 ft | 467 kts | 143° |
| 2026-05-06 14:39 | 22.62828 | 37.87501 | 38861 ft | 467 kts | 143° |
| 2026-05-06 14:40 | 22.58331 | 37.92574 | 38862 ft | 467 kts | 143° |
| 2026-05-06 14:40 | 22.53866 | 37.97606 | 38867 ft | 467 kts | 143° |
| 2026-05-06 14:41 | 22.49369 | 38.02671 | 38862 ft | 466 kts | 143° |
| 2026-05-06 14:41 | 22.44877 | 38.07726 | 38864 ft | 466 kts | 143° |
| 2026-05-06 14:42 | 22.40391 | 38.12771 | 38857 ft | 466 kts | 143° |
| 2026-05-06 14:42 | 22.35900 | 38.17815 | 38855 ft | 465 kts | 143° |
| 2026-05-06 14:43 | 22.31449 | 38.22810 | 38851 ft | 464 kts | 143° |
| 2026-05-06 14:43 | 22.27324 | 38.28259 | 38816 ft | 472 kts | 134° |
| 2026-05-06 14:44 | 22.25424 | 38.31148 | 38559 ft | 470 kts | 134° |
| 2026-05-06 14:44 | 22.23544 | 38.34008 | 37961 ft | 469 kts | 134° |
| 2026-05-06 14:44 | 22.21646 | 38.36884 | 37261 ft | 469 kts | 135° |
| 2026-05-06 14:45 | 22.17681 | 38.42406 | 35985 ft | 453 kts | 146° |
| 2026-05-06 14:45 | 22.15287 | 38.44474 | 35554 ft | 430 kts | 158° |
| 2026-05-06 14:45 | 22.12707 | 38.45837 | 35080 ft | 410 kts | 170° |
| 2026-05-06 14:45 | 22.10019 | 38.46750 | 34600 ft | 401 kts | 173° |
| 2026-05-06 14:46 | 22.07343 | 38.47536 | 34150 ft | 396 kts | 174° |
| 2026-05-06 14:46 | 22.04702 | 38.48286 | 33774 ft | 390 kts | 174° |
| 2026-05-06 14:46 | 22.02082 | 38.49026 | 33133 ft | 391 kts | 173° |
| 2026-05-06 14:46 | 21.99473 | 38.49932 | 32476 ft | 396 kts | 169° |
| 2026-05-06 14:47 | 21.96905 | 38.51045 | 31901 ft | 399 kts | 165° |
| 2026-05-06 14:47 | 21.94425 | 38.52317 | 31360 ft | 402 kts | 161° |
| 2026-05-06 14:47 | 21.91970 | 38.53649 | 31155 ft | 385 kts | 167° |
| 2026-05-06 14:47 | 21.89452 | 38.54383 | 30548 ft | 370 kts | 181° |
| 2026-05-06 14:48 | 21.86874 | 38.54420 | 29302 ft | 377 kts | 191° |
| 2026-05-06 14:48 | 21.84201 | 38.54171 | 27907 ft | 395 kts | 191° |
| 2026-05-06 14:48 | 21.81391 | 38.54002 | 26544 ft | 413 kts | 187° |
| 2026-05-06 14:48 | 21.78454 | 38.54239 | 25171 ft | 436 kts | 174° |
| 2026-05-06 14:49 | 21.75475 | 38.55181 | 23804 ft | 457 kts | 162° |
| 2026-05-06 14:49 | 21.72613 | 38.56823 | 22317 ft | 476 kts | 150° |
| 2026-05-06 14:49 | 21.70109 | 38.59104 | 21439 ft | 478 kts | 138° |
| 2026-05-06 14:49 | 21.68060 | 38.61894 | 20679 ft | 476 kts | 126° |
| 2026-05-06 14:50 | 21.66569 | 38.65055 | 19934 ft | 474 kts | 114° |
| 2026-05-06 14:50 | 21.65742 | 38.68444 | 19607 ft | 463 kts | 102° |
| 2026-05-06 14:50 | 21.65609 | 38.71841 | 19392 ft | 447 kts | 88° |
| 2026-05-06 14:50 | 21.66180 | 38.75039 | 19144 ft | 427 kts | 73° |
| 2026-05-06 14:51 | 21.67443 | 38.77826 | 18919 ft | 407 kts | 56° |
| 2026-05-06 14:51 | 21.69237 | 38.80039 | 18732 ft | 387 kts | 44° |
| 2026-05-06 14:51 | 21.71157 | 38.81956 | 18557 ft | 368 kts | 42° |
| 2026-05-06 14:51 | 21.73002 | 38.83719 | 18404 ft | 350 kts | 41° |
| 2026-05-06 14:52 | 21.74716 | 38.85479 | 18255 ft | 332 kts | 50° |
| 2026-05-06 14:52 | 21.75361 | 38.86356 | 18188 ft | 323 kts | 57° |
| 2026-05-06 14:52 | 21.76401 | 38.88413 | 17853 ft | 308 kts | 72° |
| 2026-05-06 14:52 | 21.77008 | 38.90592 | 17306 ft | 301 kts | 82° |
| 2026-05-06 14:53 | 21.77328 | 38.92796 | 16761 ft | 296 kts | 88° |
| 2026-05-06 14:53 | 21.77496 | 38.94816 | 16279 ft | 292 kts | 90° |
| 2026-05-06 14:53 | 21.77295 | 38.96926 | 15727 ft | 279 kts | 115° |
| 2026-05-06 14:53 | 21.76319 | 38.98619 | 15156 ft | 266 kts | 142° |
| 2026-05-06 14:54 | 21.74783 | 38.99599 | 14611 ft | 254 kts | 165° |
| 2026-05-06 14:54 | 21.73111 | 39.00199 | 14081 ft | 253 kts | 165° |
| 2026-05-06 14:54 | 21.71446 | 39.00805 | 13681 ft | 252 kts | 165° |
| 2026-05-06 14:54 | 21.69800 | 39.01430 | 13271 ft | 250 kts | 164° |
| 2026-05-06 14:55 | 21.68166 | 39.02068 | 12858 ft | 249 kts | 163° |
| 2026-05-06 14:55 | 21.66549 | 39.02712 | 12471 ft | 247 kts | 163° |
| 2026-05-06 14:55 | 21.64938 | 39.03353 | 12112 ft | 246 kts | 163° |
| 2026-05-06 14:55 | 21.63334 | 39.03985 | 11802 ft | 245 kts | 163° |
| 2026-05-06 14:56 | 21.61759 | 39.04602 | 11484 ft | 244 kts | 163° |
| 2026-05-06 14:56 | 21.60165 | 39.05226 | 11122 ft | 244 kts | 163° |
| 2026-05-06 14:56 | 21.58550 | 39.05858 | 10679 ft | 249 kts | 163° |
| 2026-05-06 14:56 | 21.56917 | 39.06498 | 10289 ft | 251 kts | 163° |
| 2026-05-06 14:57 | 21.55291 | 39.07136 | 10075 ft | 245 kts | 163° |
| 2026-05-06 14:57 | 21.53733 | 39.07752 | 10004 ft | 232 kts | 163° |
| 2026-05-06 14:57 | 21.52256 | 39.08335 | 10002 ft | 225 kts | 163° |
| 2026-05-06 14:57 | 21.50746 | 39.08924 | 10006 ft | 238 kts | 163° |
| 2026-05-06 14:58 | 21.49158 | 39.09546 | 10001 ft | 246 kts | 163° |
| 2026-05-06 14:58 | 21.47586 | 39.10168 | 10001 ft | 243 kts | 162° |
| 2026-05-06 14:58 | 21.46011 | 39.10793 | 10002 ft | 240 kts | 163° |
| 2026-05-06 14:58 | 21.44454 | 39.11412 | 10006 ft | 238 kts | 162° |
| 2026-05-06 14:59 | 21.42906 | 39.12028 | 10001 ft | 236 kts | 163° |
| 2026-05-06 14:59 | 21.41360 | 39.12639 | 10003 ft | 239 kts | 163° |
| 2026-05-06 14:59 | 21.39780 | 39.13264 | 10003 ft | 243 kts | 162° |
| 2026-05-06 14:59 | 21.38200 | 39.13892 | 10000 ft | 240 kts | 163° |
| 2026-05-06 15:00 | 21.36670 | 39.14498 | 10006 ft | 236 kts | 163° |
| 2026-05-06 15:00 | 21.35137 | 39.15104 | 10006 ft | 236 kts | 163° |
| 2026-05-06 15:00 | 21.33585 | 39.15714 | 10007 ft | 239 kts | 163° |
| 2026-05-06 15:00 | 21.32027 | 39.16330 | 9980 ft | 238 kts | 163° |
| 2026-05-06 15:01 | 21.30482 | 39.16942 | 9795 ft | 236 kts | 163° |
| 2026-05-06 15:01 | 21.28945 | 39.17550 | 9500 ft | 235 kts | 163° |
| 2026-05-06 15:01 | 21.27408 | 39.18154 | 9146 ft | 235 kts | 162° |
| 2026-05-06 15:01 | 21.25920 | 39.18886 | 8787 ft | 238 kts | 145° |
| 2026-05-06 15:02 | 21.24919 | 39.20262 | 8520 ft | 240 kts | 114° |
| 2026-05-06 15:02 | 21.24702 | 39.22004 | 8340 ft | 239 kts | 84° |
| 2026-05-06 15:02 | 21.25196 | 39.23709 | 8042 ft | 240 kts | 72° |
| 2026-05-06 15:02 | 21.25792 | 39.25387 | 7670 ft | 241 kts | 72° |
| 2026-05-06 15:03 | 21.26415 | 39.27079 | 7130 ft | 247 kts | 65° |
| 2026-05-06 15:03 | 21.27551 | 39.28470 | 6611 ft | 254 kts | 34° |
| 2026-05-06 15:03 | 21.29217 | 39.29103 | 6076 ft | 258 kts | 4° |
| 2026-05-06 15:03 | 21.30976 | 39.28812 | 5676 ft | 254 kts | 338° |
| 2026-05-06 15:04 | 21.32527 | 39.28047 | 5541 ft | 238 kts | 332° |
| 2026-05-06 15:04 | 21.33956 | 39.27266 | 5244 ft | 232 kts | 333° |
| 2026-05-06 15:04 | 21.35401 | 39.26539 | 4907 ft | 228 kts | 335° |
| 2026-05-06 15:04 | 21.36853 | 39.25886 | 4552 ft | 225 kts | 337° |
| 2026-05-06 15:05 | 21.38300 | 39.25283 | 4224 ft | 221 kts | 338° |
| 2026-05-06 15:05 | 21.39731 | 39.24711 | 3880 ft | 217 kts | 339° |
| 2026-05-06 15:05 | 21.41145 | 39.24156 | 3583 ft | 215 kts | 339° |
| 2026-05-06 15:05 | 21.42523 | 39.23615 | 3459 ft | 203 kts | 340° |
| 2026-05-06 15:06 | 21.43801 | 39.23130 | 3284 ft | 190 kts | 341° |
| 2026-05-06 15:06 | 21.44995 | 39.22682 | 3127 ft | 177 kts | 340° |
| 2026-05-06 15:06 | 21.46085 | 39.22253 | 3082 ft | 157 kts | 339° |
| 2026-05-06 15:06 | 21.47049 | 39.21874 | 3099 ft | 137 kts | 340° |
| 2026-05-06 15:07 | 21.47924 | 39.21528 | 3098 ft | 141 kts | 339° |
| 2026-05-06 15:07 | 21.48875 | 39.21152 | 3093 ft | 144 kts | 340° |
| 2026-05-06 15:07 | 21.49816 | 39.20781 | 3076 ft | 143 kts | 339° |
| 2026-05-06 15:07 | 21.50750 | 39.20410 | 3086 ft | 144 kts | 339° |
| 2026-05-06 15:08 | 21.51688 | 39.20039 | 3024 ft | 143 kts | 340° |
| 2026-05-06 15:08 | 21.52612 | 39.19674 | 2862 ft | 144 kts | 340° |
| 2026-05-06 15:08 | 21.53548 | 39.19304 | 2675 ft | 142 kts | 340° |
| 2026-05-06 15:08 | 21.54452 | 39.18946 | 2508 ft | 135 kts | 340° |
| 2026-05-06 15:09 | 21.55320 | 39.18603 | 2346 ft | 131 kts | 341° |
| 2026-05-06 15:09 | 21.56178 | 39.18263 | 2187 ft | 132 kts | 341° |
| 2026-05-06 15:09 | 21.57042 | 39.17922 | 2001 ft | 131 kts | 341° |
| 2026-05-06 15:09 | 21.57885 | 39.17588 | 1838 ft | 128 kts | 341° |
| 2026-05-06 15:10 | 21.58734 | 39.17253 | 1676 ft | 133 kts | 342° |
| 2026-05-06 15:10 | 21.59576 | 39.16919 | 1510 ft | 127 kts | 343° |
| 2026-05-06 15:10 | 21.60398 | 39.16593 | 1346 ft | 126 kts | 342° |
| 2026-05-06 15:10 | 21.61216 | 39.16270 | 1190 ft | 126 kts | 341° |
| 2026-05-06 15:11 | 21.62002 | 39.15958 | 1023 ft | 122 kts | 341° |
| 2026-05-06 15:11 | 21.62810 | 39.15639 | 878 ft | 125 kts | 341° |
| 2026-05-06 15:11 | 21.63663 | 39.15301 | 729 ft | 136 kts | 340° |
| 2026-05-06 15:11 | 21.64540 | 39.14953 | 559 ft | 131 kts | 342° |
| 2026-05-06 15:12 | 21.65376 | 39.14623 | 399 ft | 130 kts | 340° |
| 2026-05-06 15:12 | 21.66246 | 39.14277 | 237 ft | 137 kts | 341° |
| 2026-05-06 15:12 | 21.67100 | 39.13939 | 53 ft | 125 kts | 341° |
| 2026-05-06 15:12 | 21.67806 | 39.13660 | 28 ft | 70 kts | 341° |
| 2026-05-06 15:13 | 21.67958 | 39.13597 | 29 ft | 0 kts | 338° |
| 2026-05-06 15:13 | 21.68019 | 39.13572 | 24 ft | 32 kts | 340° |
| 2026-05-06 15:13 | 21.68272 | 39.13478 | 25 ft | 39 kts | 340° |
| 2026-05-06 15:13 | 21.68506 | 39.13413 | 23 ft | 33 kts | 1° |
| 2026-05-06 15:14 | 21.68613 | 39.13427 | 22 ft | 0 kts | 10° |
| 2026-05-06 15:15 | 21.68622 | 39.13428 | 22 ft | 11 kts | 9° |
| 2026-05-06 15:15 | 21.68759 | 39.13454 | 25 ft | 17 kts | 10° |
| 2026-05-06 15:15 | 21.68885 | 39.13455 | 26 ft | 19 kts | 342° |
| 2026-05-06 15:16 | 21.69015 | 39.13404 | 23 ft | 21 kts | 338° |
| 2026-05-06 15:16 | 21.69154 | 39.13347 | 24 ft | 22 kts | 340° |
| 2026-05-06 15:16 | 21.69294 | 39.13292 | 23 ft | 16 kts | 341° |
| 2026-05-06 15:16 | 21.69381 | 39.13346 | 23 ft | 17 kts | 65° |
| 2026-05-06 15:17 | 21.69425 | 39.13462 | 25 ft | 15 kts | 75° |
| 2026-05-06 15:17 | 21.69391 | 39.13503 | 24 ft | 9 kts | 158° |
| 2026-05-06 15:17 | 21.69283 | 39.13546 | 25 ft | 23 kts | 162° |
| 2026-05-06 15:17 | 21.69133 | 39.13603 | 24 ft | 25 kts | 160° |
| 2026-05-06 15:18 | 21.69008 | 39.13661 | 25 ft | 14 kts | 130° |
| 2026-05-06 15:18 | 21.68951 | 39.13714 | 24 ft | 13 kts | 159° |
| 2026-05-06 15:18 | 21.68856 | 39.13755 | 28 ft | 17 kts | 159° |
| 2026-05-06 15:18 | 21.68733 | 39.13805 | 26 ft | 21 kts | 159° |
| 2026-05-06 15:19 | 21.68587 | 39.13865 | 24 ft | 24 kts | 159° |
| 2026-05-06 15:19 | 21.68468 | 39.13915 | 26 ft | 9 kts | 154° |
| 2026-05-06 15:19 | 21.68424 | 39.13986 | 27 ft | 16 kts | 96° |
| 2026-05-06 15:19 | 21.68468 | 39.14126 | 28 ft | 24 kts | 69° |
| 2026-05-06 15:20 | 21.68532 | 39.14317 | 27 ft | 31 kts | 69° |
| 2026-05-06 15:20 | 21.68612 | 39.14551 | 29 ft | 36 kts | 70° |
| 2026-05-06 15:20 | 21.68694 | 39.14790 | 30 ft | 35 kts | 70° |
| 2026-05-06 15:20 | 21.68775 | 39.15025 | 30 ft | 28 kts | 69° |
| 2026-05-06 15:21 | 21.68841 | 39.15229 | 30 ft | 30 kts | 68° |
| 2026-05-06 15:21 | 21.68917 | 39.15440 | 30 ft | 31 kts | 70° |
| 2026-05-06 15:21 | 21.68972 | 39.15634 | 31 ft | 23 kts | 96° |
| 2026-05-06 15:21 | 21.68888 | 39.15701 | 31 ft | 17 kts | 162° |
| 2026-05-06 15:22 | 21.68763 | 39.15747 | 31 ft | 22 kts | 160° |
| 2026-05-06 15:22 | 21.68593 | 39.15815 | 31 ft | 32 kts | 159° |
| 2026-05-06 15:22 | 21.68358 | 39.15906 | 32 ft | 40 kts | 157° |
| 2026-05-06 15:22 | 21.68125 | 39.16000 | 33 ft | 33 kts | 161° |
| 2026-05-06 15:23 | 21.67912 | 39.16082 | 32 ft | 21 kts | 160° |
| 2026-05-06 15:23 | 21.67759 | 39.16144 | 33 ft | 25 kts | 159° |
| 2026-05-06 15:23 | 21.67590 | 39.16209 | 34 ft | 26 kts | 160° |
| 2026-05-06 15:23 | 21.67413 | 39.16281 | 34 ft | 29 kts | 160° |
| 2026-05-06 15:24 | 21.67229 | 39.16352 | 35 ft | 29 kts | 160° |
| 2026-05-06 15:24 | 21.67032 | 39.16428 | 36 ft | 32 kts | 159° |
| 2026-05-06 15:24 | 21.66895 | 39.16504 | 36 ft | 20 kts | 118° |
| 2026-05-06 15:24 | 21.66903 | 39.16620 | 37 ft | 12 kts | 91° |
| 2026-05-06 15:25 | 21.66910 | 39.16676 | 38 ft | 5 kts | 32° |
| 2026-05-06 15:25 | 21.66954 | 39.16678 | 38 ft | 8 kts | 360° |
| 2026-05-06 15:25 | 21.66987 | 39.16677 | 39 ft | 0 kts | 360° |
| 2026-05-06 15:27 | 21.48241 | 39.21402 | 3092 ft | 138 kts | 340° |
| 2026-05-06 15:27 | 21.48779 | 39.21190 | 3075 ft | 144 kts | 340° |
| 2026-05-06 15:28 | 21.62294 | 39.15843 | 971 ft | 124 kts | 341° |
| 2026-05-06 15:28 | 21.66151 | 39.14314 | 256 ft | 137 kts | 340° |
| 2026-05-06 15:28 | 21.66338 | 39.14240 | 217 ft | 136 kts | 341° |
| 2026-05-06 15:29 | 21.67105 | 39.13937 | 51 ft | 125 kts | 341° |
| 2026-05-06 15:29 | 21.67808 | 39.13659 | 25 ft | 70 kts | 341° |
| 2026-05-06 15:29 | 21.66833 | 39.14045 | 107 ft | 129 kts | 342° |
| 2026-05-06 15:30 | 21.67493 | 39.13778 | 28 ft | 115 kts | 341° |
| 2026-05-06 15:30 | 21.67946 | 39.13602 | 24 ft | 17 kts | 338° |